Time;durP1;ratioP1;P1;durP2;ratioP2;P2;SDS_P1;SDS_P2;PMS_P1;PMS_P2;Temp;Humidity;BMP_temperature;BMP_pressure;BME280_temperature;BME280_humidity;BME280_pressure;Samples;Min_cycle;Max_cycle;Signal;HPM_P1;HPM_P2
2022/07/18 06:55:49;;;;;;;6.07;3.25;;;20.20;62.50;;;;;;4836802;29;20469;-75
2022/07/18 06:58:14;;;;;;;7.50;3.20;;;20.30;62.70;;;;;;4842842;29;20053;-76
2022/07/18 07:00:40;;;;;;;9.57;3.35;;;20.30;63.10;;;;;;4842053;29;20453;-74
2022/07/18 07:03:06;;;;;;;6.22;2.70;;;20.30;63.10;;;;;;4842968;29;20054;-75
2022/07/18 07:05:32;;;;;;;6.35;3.00;;;20.40;62.60;;;;;;4844056;29;20125;-75
2022/07/18 07:07:58;;;;;;;10.32;3.00;;;20.40;62.60;;;;;;4844453;29;20185;-77
2022/07/18 07:10:23;;;;;;;8.10;2.60;;;20.50;63.10;;;;;;4844476;29;20129;-81
2022/07/18 07:12:51;;;;;;;5.50;2.40;;;20.50;63.60;;;;;;4843293;29;20042;-78
2022/07/18 07:15:22;;;;;;;17.48;3.83;;;20.60;63.60;;;;;;4812076;29;20054;-74
2022/07/18 07:17:48;;;;;;;10.23;3.42;;;20.60;64.30;;;;;;4827889;29;20477;-76
2022/07/18 07:20:17;;;;;;;13.88;3.08;;;20.60;64.10;;;;;;4844399;29;20060;-78
2022/07/18 07:22:50;;;;;;;15.63;3.30;;;20.70;64.50;;;;;;4843957;29;20054;-77
2022/07/18 07:25:16;;;;;;;13.85;3.17;;;20.70;64.60;;;;;;4844260;29;20049;-77
2022/07/18 07:27:43;;;;;;;11.10;2.90;;;20.80;64.70;;;;;;4844046;29;20050;-76
2022/07/18 07:30:09;;;;;;;12.93;3.60;;;20.80;64.80;;;;;;4844035;29;20050;-77
2022/07/18 07:32:39;;;;;;;14.25;3.33;;;20.90;64.80;;;;;;4843903;29;20399;-75
2022/07/18 07:35:06;;;;;;;13.95;3.70;;;20.90;64.60;;;;;;4844321;29;20458;-76
2022/07/18 07:37:36;;;;;;;11.20;2.67;;;20.90;64.40;;;;;;4828063;29;20090;-75
2022/07/18 07:40:02;;;;;;;10.57;2.80;;;20.90;63.60;;;;;;4828340;29;20423;-75
2022/07/18 07:42:28;;;;;;;11.30;2.70;;;20.90;63.60;;;;;;4847821;29;20470;-73
2022/07/18 07:44:54;;;;;;;8.32;2.50;;;20.90;64.10;;;;;;4847719;29;20068;-76
2022/07/18 07:47:19;;;;;;;6.88;2.70;;;20.90;64.30;;;;;;4831427;29;20050;-75
2022/07/18 07:49:45;;;;;;;12.90;2.80;;;21.00;64.40;;;;;;4848214;29;20057;-74
2022/07/18 07:52:14;;;;;;;11.65;2.92;;;21.00;64.40;;;;;;4847961;29;20462;-76
2022/07/18 07:54:40;;;;;;;10.52;2.70;;;21.00;64.30;;;;;;4848264;29;20054;-74
2022/07/18 07:57:06;;;;;;;8.50;2.50;;;21.00;64.50;;;;;;4846804;29;20089;-73
2022/07/18 07:59:32;;;;;;;9.60;3.00;;;21.00;64.50;;;;;;4847729;29;20085;-75
2022/07/18 08:01:58;;;;;;;8.77;2.75;;;21.00;64.50;;;;;;4847162;29;20049;-73
2022/07/18 08:04:25;;;;;;;5.45;2.45;;;21.00;64.70;;;;;;4847772;29;20521;-75
2022/07/18 08:06:50;;;;;;;8.60;2.45;;;21.10;64.80;;;;;;4847802;29;20046;-72
2022/07/18 08:09:16;;;;;;;8.40;2.40;;;21.10;64.60;;;;;;4847485;29;20346;-75
2022/07/18 08:11:42;;;;;;;14.70;2.85;;;21.10;64.30;;;;;;4847609;29;20476;-71
2022/07/18 08:14:08;;;;;;;6.78;1.95;;;21.10;63.80;;;;;;4847641;29;20100;-76
2022/07/18 08:16:34;;;;;;;4.68;2.33;;;21.10;63.80;;;;;;4847650;29;20065;-73
2022/07/18 08:19:00;;;;;;;5.43;2.40;;;21.10;63.80;;;;;;4847607;29;20458;-75
2022/07/18 08:21:25;;;;;;;6.45;2.30;;;21.10;64.10;;;;;;4829953;29;20060;-74
2022/07/18 08:23:51;;;;;;;5.40;2.35;;;21.20;63.90;;;;;;4847154;29;20058;-77
2022/07/18 08:26:17;;;;;;;4.80;1.92;;;21.10;63.60;;;;;;4847013;29;20046;-76
2022/07/18 08:28:43;;;;;;;7.55;2.97;;;21.20;63.50;;;;;;4830695;29;20054;-78
2022/07/18 08:31:09;;;;;;;4.93;1.80;;;21.20;63.40;;;;;;4830726;29;20115;-76
2022/07/18 08:33:35;;;;;;;3.78;1.63;;;21.20;63.40;;;;;;4847044;29;20054;-79
2022/07/18 08:36:00;;;;;;;8.63;1.92;;;21.20;63.40;;;;;;4846865;29;20050;-77
2022/07/18 08:38:26;;;;;;;4.25;1.92;;;21.30;63.50;;;;;;4846470;29;20433;-76
2022/07/18 08:40:54;;;;;;;7.50;1.88;;;21.30;63.40;;;;;;4830513;29;20090;-79
2022/07/18 08:43:20;;;;;;;5.53;1.80;;;21.30;63.30;;;;;;4830790;29;20068;-78
2022/07/18 08:45:46;;;;;;;4.10;2.38;;;21.40;63.40;;;;;;4846870;29;20365;-76
2022/07/18 08:48:16;;;;;;;4.55;2.70;;;21.40;63.30;;;;;;4846828;29;20050;-79
2022/07/18 08:50:45;;;;;;;8.65;1.83;;;21.40;63.30;;;;;;4846349;29;20049;-76
2022/07/18 08:53:13;;;;;;;11.40;2.20;;;21.40;62.10;;;;;;4831223;29;20057;-77
2022/07/18 08:55:39;;;;;;;6.88;2.45;;;21.40;62.10;;;;;;4846304;29;20206;-78
2022/07/18 08:58:04;;;;;;;6.05;2.05;;;21.40;62.50;;;;;;4846509;29;20145;-77
2022/07/18 09:00:30;;;;;;;3.83;2.08;;;21.40;62.80;;;;;;4846740;29;20053;-79
2022/07/18 09:03:00;;;;;;;4.25;2.08;;;21.40;62.90;;;;;;4846683;29;20461;-79
2022/07/18 09:05:26;;;;;;;5.45;1.67;;;21.50;62.70;;;;;;4846929;29;20060;-77
2022/07/18 09:08:19;;;;;;;7.50;2.50;;;21.50;62.70;;;;;;4846701;29;20377;-79
2022/07/18 09:10:56;;;;;;;4.70;2.10;;;21.50;63.10;;;;;;4847215;29;20132;-77
2022/07/18 09:13:32;;;;;;;5.25;1.92;;;21.50;63.00;;;;;;4845626;29;20070;-78
2022/07/18 09:16:09;;;;;;;3.10;1.67;;;21.50;63.00;;;;;;4857028;29;20058;-77
2022/07/18 09:18:48;;;;;;;4.75;1.77;;;21.60;63.20;;;;;;4864701;29;20053;-77
2022/07/18 09:21:18;;;;;;;4.82;1.65;;;21.60;63.20;;;;;;4864562;29;20504;-79
2022/07/18 09:23:48;;;;;;;5.82;1.90;;;21.60;62.90;;;;;;4864003;29;20049;-77
2022/07/18 09:26:40;;;;;;;8.38;1.58;;;21.60;63.00;;;;;;4864078;29;20469;-76
2022/07/18 16:00:11;;;;;;;5.75;2.47;;;23.20;58.70;;;;;;4818627;29;20058;-73
2022/07/18 19:45:21;;;;;;;4.18;2.75;;;23.20;65.30;;;;;;5110546;23;20076;-70
2022/07/18 19:47:46;;;;;;;4.25;2.60;;;23.20;65.90;;;;;;4883952;29;20080;-71
2022/07/18 19:50:13;;;;;;;6.60;3.28;;;23.20;66.10;;;;;;4884416;29;20041;-73
2022/07/18 19:52:38;;;;;;;4.50;2.83;;;23.10;66.50;;;;;;4884693;29;20080;-72
2022/07/18 19:55:04;;;;;;;5.22;3.03;;;23.10;66.70;;;;;;4884970;29;20087;-76
2022/07/18 19:57:30;;;;;;;3.97;2.80;;;23.10;66.90;;;;;;4884450;29;20053;-73
2022/07/18 19:59:56;;;;;;;4.80;2.85;;;23.10;66.90;;;;;;4884853;29;20056;-72
2022/07/18 20:02:22;;;;;;;3.20;2.35;;;23.10;67.00;;;;;;4885148;29;20067;-73
2022/07/18 20:04:47;;;;;;;2.97;2.25;;;23.00;66.90;;;;;;4884924;29;20441;-71
2022/07/18 20:07:13;;;;;;;4.43;2.63;;;23.00;66.40;;;;;;4884862;29;20059;-72
2022/07/18 20:09:39;;;;;;;4.18;2.42;;;23.00;66.30;;;;;;4867843;29;20096;-74
2022/07/18 20:12:05;;;;;;;4.25;2.25;;;22.90;66.10;;;;;;4884460;29;20049;-73
2022/07/18 20:14:30;;;;;;;4.10;3.00;;;22.90;66.10;;;;;;4884771;29;20152;-73
2022/07/18 20:16:56;;;;;;;5.07;2.70;;;22.80;66.30;;;;;;4884312;29;20268;-76
2022/07/18 20:19:22;;;;;;;4.97;3.00;;;22.80;66.30;;;;;;4884382;29;20061;-75
2022/07/18 20:21:48;;;;;;;4.18;3.03;;;22.70;66.30;;;;;;4883404;29;20064;-75
2022/07/18 20:24:13;;;;;;;4.03;2.42;;;22.70;66.30;;;;;;4883293;29;20101;-76
2022/07/18 20:26:39;;;;;;;4.32;3.10;;;22.70;66.40;;;;;;4884120;29;20064;-72
2022/07/18 20:29:05;;;;;;;3.95;2.90;;;22.70;67.30;;;;;;4884288;29;20456;-74
2022/07/18 20:31:31;;;;;;;8.38;3.22;;;22.60;66.70;;;;;;4884171;29;20055;-74
2022/07/18 20:33:57;;;;;;;3.90;3.42;;;22.60;67.10;;;;;;4884296;29;20139;-71
2022/07/18 20:36:23;;;;;;;7.55;4.40;;;22.60;67.30;;;;;;4884423;29;20095;-73
2022/07/18 20:38:49;;;;;;;5.45;3.90;;;22.50;67.30;;;;;;4852032;29;20154;-75
2022/07/18 20:41:15;;;;;;;3.97;3.58;;;22.50;67.40;;;;;;4883880;29;20127;-76
2022/07/18 20:43:41;;;;;;;4.65;3.17;;;22.50;67.50;;;;;;4883667;29;20067;-74
2022/07/18 20:46:07;;;;;;;4.88;2.83;;;22.50;67.60;;;;;;4883148;29;20057;-73
2022/07/18 20:48:33;;;;;;;5.25;2.88;;;22.50;67.60;;;;;;4884167;29;20061;-73
2022/07/18 20:50:59;;;;;;;6.53;2.90;;;22.50;67.70;;;;;;4884080;29;20048;-74
2022/07/18 20:53:25;;;;;;;7.80;3.13;;;22.50;68.00;;;;;;4863858;29;20368;-73
2022/07/18 20:55:50;;;;;;;5.55;3.05;;;22.40;68.10;;;;;;4875348;29;20057;-76
2022/07/18 20:58:16;;;;;;;5.20;2.70;;;22.40;68.10;;;;;;4865387;29;20049;-73
2022/07/18 21:00:44;;;;;;;3.65;2.97;;;22.40;68.10;;;;;;4865154;29;20053;-73
2022/07/18 21:03:10;;;;;;;4.30;3.00;;;22.40;68.00;;;;;;4848561;29;20101;-73
2022/07/18 21:05:36;;;;;;;4.85;3.47;;;22.40;68.10;;;;;;4878952;29;20385;-74
2022/07/18 21:08:02;;;;;;;5.50;3.47;;;22.30;68.30;;;;;;4883664;29;20120;-74
2022/07/18 21:10:28;;;;;;;6.15;3.58;;;22.30;68.40;;;;;;4883393;29;20105;-74
